メインページ
METAR-TAF:

METAR-TAF

空港 :

Bella Bella, ブリティッシュコロンビア州, カナダ

緯度: 52-11-06N, 経度: 128-09-24W, 海抜: 43m

現時点の気象観測

当レポートは40分前の12:33(UTC)に作成
無風
気温 4°C
湿度 93%
気圧 1016 hPa
視程: 9.7km
高度2500ftの千切れ雲あり
雨, 靄

METAR: CBBC 201233Z AUTO 00000KT 6SM RA BR BKN025 04/03 A3001 RMK SLP164

時間: 05:13 (13:13 UTC)

予報

当レポートは12時間35分前の00:38(UTC)に作成
予報は20日の 01時(UTC)から 20日の 06時(UTC)まで有効
の風 12kt
視程: 10km
高度2000ftの雲は散在している
高度4000ftの千切れ雲あり
20日の 01時(UTC)から 20日の 06時(UTC)まで一時的に
視程: 6.4km
高度2000ftの曇り
小雨, 靄

TAF: CBBC 200038Z 2001/2006 19012KT P6SM SCT020 BKN040 TEMPO 2001/2006 4SM -RA BR OVC020 RMK FCST BASED ON AUTO OBS. NXT FCST WILL BE ISSUED AT 201345Z

4,000以上の空港の気象観測と天気予報(METAR報とTAF報)

利用可能な観測所は地図上に黄色い丸と赤い丸で示す。

丸の上にカーソルを重ねると観測所名を参照できる。

次にクリックすると気象観測と天気予報を参照できる。

マップの切り替え:黒色「×」印の緑ボタンをクリックして拡大、「-」印の緑ボタンをクリックして縮小、緑色の三角印をクリックして隣りの地図に切り替え


METAR-TAF: